createdAt,value
2022-12-02T00:01:56.192Z,71.09
2022-12-02T00:04:28.585Z,71.09
2022-12-02T00:06:59.143Z,71.20
2022-12-02T00:09:36.338Z,71.03
2022-12-02T00:12:28.742Z,71.02
2022-12-02T00:15:04.358Z,71.11
2022-12-02T00:17:33.268Z,71.25
2022-12-02T00:20:02.156Z,71.10
2022-12-02T00:22:31.489Z,71.19
2022-12-02T00:25:00.777Z,71.25
2022-12-02T00:27:29.790Z,71.25
2022-12-02T00:29:58.568Z,71.09
2022-12-02T00:32:27.366Z,71.22
2022-12-02T00:34:56.948Z,71.34
2022-12-02T00:37:25.842Z,71.27
2022-12-02T00:39:54.717Z,71.07
2022-12-02T00:42:23.547Z,71.21
2022-12-02T00:45:11.025Z,71.02
2022-12-02T00:47:39.820Z,71.15
2022-12-02T00:50:09.227Z,71.02
2022-12-02T00:52:38.147Z,70.96
2022-12-02T00:55:07.692Z,71.09
2022-12-02T00:57:37.066Z,71.02
2022-12-02T01:00:07.774Z,70.98
2022-12-02T01:02:44.196Z,71.17
2022-12-02T01:05:16.009Z,71.09
2022-12-02T01:07:44.956Z,71.10
2022-12-02T01:10:14.523Z,71.12
2022-12-02T01:12:43.444Z,71.37
2022-12-02T01:15:12.768Z,71.12
2022-12-02T01:17:41.751Z,71.02
2022-12-02T01:20:11.174Z,70.76
2022-12-02T01:22:40.272Z,71.04
2022-12-02T01:25:09.331Z,71.25
2022-12-02T01:27:38.275Z,71.17
2022-12-02T01:30:08.265Z,71.12
2022-12-02T01:32:37.339Z,70.92
2022-12-02T01:35:06.678Z,71.11
2022-12-02T01:37:35.518Z,70.87
2022-12-02T01:40:06.431Z,71.32
2022-12-02T01:42:35.742Z,71.02
2022-12-02T01:45:06.285Z,71.04
2022-12-02T01:47:36.869Z,71.41
2022-12-02T01:50:08.413Z,70.95
2022-12-02T01:52:37.905Z,71.19
2022-12-02T01:55:12.409Z,71.08
2022-12-02T01:57:41.554Z,70.78
2022-12-02T02:00:12.472Z,70.94
2022-12-02T02:02:42.560Z,71.27
2022-12-02T02:05:30.280Z,70.91
2022-12-02T02:08:05.705Z,71.17
2022-12-02T02:10:36.546Z,71.16
2022-12-02T02:13:06.734Z,71.03
2022-12-02T02:15:38.305Z,71.13
2022-12-02T02:18:07.571Z,70.89
2022-12-02T02:20:40.970Z,71.08
2022-12-02T02:23:10.613Z,71.01
2022-12-02T02:25:48.470Z,71.33
2022-12-02T02:28:21.146Z,71.10
2022-12-02T02:30:50.271Z,71.22
2022-12-02T02:33:20.647Z,71.44
2022-12-02T02:35:50.583Z,71.17
2022-12-02T02:38:23.950Z,71.24
2022-12-02T02:40:54.523Z,70.77
2022-12-02T02:43:26.160Z,70.96
2022-12-02T02:45:56.067Z,71.02
2022-12-02T02:48:28.903Z,71.14
2022-12-02T02:50:58.138Z,70.97
2022-12-02T02:53:28.150Z,71.11
2022-12-02T02:55:59.191Z,71.28
2022-12-02T02:58:28.913Z,71.29
2022-12-02T03:01:02.472Z,71.42
2022-12-02T03:03:38.313Z,71.35
2022-12-02T03:06:10.455Z,71.36
2022-12-02T03:08:44.000Z,71.63
2022-12-02T03:11:13.566Z,71.52
2022-12-02T03:13:45.674Z,71.58
2022-12-02T03:16:17.541Z,71.52
2022-12-02T03:18:48.161Z,71.51
2022-12-02T03:21:20.246Z,71.54
2022-12-02T03:23:53.103Z,71.70
2022-12-02T03:26:22.281Z,71.55
2022-12-02T03:28:51.622Z,71.51
2022-12-02T03:31:20.672Z,71.82
2022-12-02T03:33:51.205Z,71.48
2022-12-02T03:36:20.448Z,71.50
2022-12-02T03:38:49.535Z,71.51
2022-12-02T03:41:19.222Z,71.73
2022-12-02T03:43:48.239Z,71.70
2022-12-02T03:46:17.327Z,71.50
2022-12-02T03:48:46.887Z,71.80
2022-12-02T03:51:16.707Z,71.68
2022-12-02T03:53:46.307Z,71.38
2022-12-02T03:56:15.363Z,71.82
2022-12-02T03:58:49.981Z,71.68
2022-12-02T04:01:21.161Z,71.88
2022-12-02T04:03:50.314Z,71.53
2022-12-02T04:06:19.185Z,71.63
2022-12-02T04:08:48.118Z,71.35
2022-12-02T04:11:17.610Z,71.46
2022-12-02T04:13:46.638Z,71.27
2022-12-02T04:16:15.630Z,71.59
2022-12-02T04:18:44.631Z,71.60
2022-12-02T04:21:13.574Z,71.65
2022-12-02T04:23:42.665Z,71.66
2022-12-02T04:26:11.569Z,71.88
2022-12-02T04:28:40.493Z,71.87
2022-12-02T04:31:09.427Z,71.77
2022-12-02T04:33:38.521Z,71.82
2022-12-02T04:36:07.966Z,72.00
2022-12-02T04:38:37.338Z,72.17
2022-12-02T04:41:06.352Z,72.02
2022-12-02T04:43:35.207Z,71.94
2022-12-02T04:46:04.205Z,71.87
2022-12-02T04:48:33.316Z,72.09
2022-12-02T04:51:02.255Z,71.62
2022-12-02T04:53:31.137Z,71.97
2022-12-02T04:56:00.037Z,71.82
2022-12-02T04:58:29.017Z,71.87
2022-12-02T05:00:58.640Z,72.22
2022-12-02T05:03:27.835Z,71.99
2022-12-02T05:05:56.761Z,72.44
2022-12-02T05:08:25.602Z,71.87
2022-12-02T05:10:54.466Z,72.13
2022-12-02T05:13:23.390Z,71.98
2022-12-02T05:15:52.285Z,71.85
2022-12-02T05:18:21.162Z,72.09
2022-12-02T05:20:50.118Z,72.24
2022-12-02T05:23:18.909Z,72.13
2022-12-02T05:25:47.752Z,72.37
2022-12-02T05:28:16.589Z,72.34
2022-12-02T05:30:45.762Z,72.40
2022-12-02T05:33:14.748Z,72.36
2022-12-02T05:35:43.803Z,72.20
2022-12-02T05:38:12.759Z,71.72
2022-12-02T05:40:41.603Z,72.04
2022-12-02T05:43:16.507Z,72.34
2022-12-02T05:45:45.396Z,72.51
2022-12-02T05:48:16.379Z,72.74
2022-12-02T05:50:46.492Z,72.66
2022-12-02T05:53:26.839Z,72.83
2022-12-02T05:55:57.739Z,72.80
2022-12-02T05:58:27.035Z,72.73
2022-12-02T06:01:00.337Z,72.68
2022-12-02T06:03:29.605Z,72.62
2022-12-02T06:05:58.554Z,72.63
2022-12-02T06:08:39.313Z,72.79
2022-12-02T06:11:25.677Z,72.78
2022-12-02T06:13:56.728Z,72.57
2022-12-02T06:16:28.767Z,72.73
2022-12-02T06:19:01.216Z,72.76
2022-12-02T06:21:30.179Z,72.98
2022-12-02T06:24:02.098Z,73.06
2022-12-02T06:26:30.949Z,72.99
2022-12-02T06:29:04.264Z,73.23
2022-12-02T06:31:39.895Z,73.10
2022-12-02T06:34:29.967Z,73.26
2022-12-02T06:37:00.239Z,73.24
2022-12-02T06:39:29.164Z,73.11
2022-12-02T06:41:58.035Z,73.27
2022-12-02T06:44:46.890Z,73.20
2022-12-02T06:47:34.108Z,73.30
2022-12-02T06:50:24.912Z,73.22
2022-12-02T06:52:56.670Z,73.39
2022-12-02T06:55:34.342Z,73.54
2022-12-02T06:58:47.295Z,73.78
2022-12-02T07:01:29.244Z,73.50
2022-12-02T07:04:21.210Z,73.23
2022-12-02T07:06:56.815Z,73.10
2022-12-02T07:09:40.977Z,73.31
2022-12-02T07:12:38.234Z,73.24
2022-12-02T07:15:13.213Z,73.24
2022-12-02T07:17:43.931Z,73.21
2022-12-02T07:20:30.230Z,73.40
2022-12-02T07:23:22.213Z,73.45
2022-12-02T07:25:55.447Z,73.48
2022-12-02T07:28:37.375Z,73.81
2022-12-02T07:31:09.254Z,73.46
2022-12-02T07:33:38.088Z,73.70
2022-12-02T07:36:07.209Z,73.37
2022-12-02T07:39:04.661Z,73.62
2022-12-02T07:41:25.151Z,73.61
2022-12-02T07:43:55.732Z,73.39
2022-12-02T07:46:24.725Z,73.39
2022-12-02T07:48:57.171Z,73.52
2022-12-02T07:51:27.104Z,73.70
2022-12-02T07:53:56.368Z,73.61
2022-12-02T07:56:25.369Z,73.61
2022-12-02T08:01:43.696Z,75.50
2022-12-02T08:04:12.873Z,74.93
2022-12-02T08:06:41.968Z,74.57
2022-12-02T08:09:11.218Z,74.43
2022-12-02T08:11:40.399Z,74.23
2022-12-02T08:14:09.245Z,74.11
2022-12-02T08:16:38.231Z,73.80
2022-12-02T08:19:07.202Z,74.10
2022-12-02T08:21:36.098Z,73.90
2022-12-02T08:24:06.438Z,74.03
2022-12-02T08:26:35.526Z,73.88
2022-12-02T08:29:04.510Z,73.60
2022-12-02T08:31:33.407Z,73.10
2022-12-02T08:34:07.067Z,72.77
2022-12-02T08:36:36.470Z,72.97
2022-12-02T08:39:06.334Z,73.22
2022-12-02T08:41:37.391Z,73.53
2022-12-02T08:44:06.960Z,73.49
2022-12-02T08:46:37.415Z,73.45
2022-12-02T08:49:09.941Z,73.56
2022-12-02T08:51:38.814Z,73.52
2022-12-02T08:54:07.755Z,73.41
2022-12-02T08:56:36.762Z,73.22
2022-12-02T08:59:05.613Z,73.40
2022-12-02T09:01:35.612Z,73.38
2022-12-02T09:04:04.901Z,73.50
2022-12-02T09:06:36.353Z,73.32
2022-12-02T09:09:06.562Z,73.17
2022-12-02T09:11:35.708Z,73.18
2022-12-02T09:14:04.757Z,73.30
2022-12-02T09:16:33.676Z,73.13
2022-12-02T09:19:02.726Z,73.12
2022-12-02T09:21:31.636Z,73.06
2022-12-02T09:24:00.462Z,72.89
2022-12-02T09:26:29.405Z,72.97
2022-12-02T09:28:58.215Z,73.13
2022-12-02T09:31:27.516Z,73.02
2022-12-02T09:33:56.508Z,72.95
2022-12-02T09:36:25.446Z,72.99
2022-12-02T09:38:54.471Z,72.87
2022-12-02T09:41:23.415Z,72.86
2022-12-02T09:43:52.445Z,72.83
2022-12-02T09:46:24.833Z,72.79
2022-12-02T09:48:54.057Z,72.79
2022-12-02T09:51:23.034Z,72.74
2022-12-02T09:53:52.573Z,72.93
2022-12-02T09:56:23.908Z,72.84
2022-12-02T09:58:56.829Z,72.99
2022-12-02T10:01:28.107Z,72.74
2022-12-02T10:03:57.293Z,72.78
2022-12-02T10:06:29.355Z,72.63
2022-12-02T10:08:59.262Z,72.80
2022-12-02T10:11:33.376Z,72.34
2022-12-02T10:14:05.352Z,72.52
2022-12-02T10:16:35.793Z,72.79
2022-12-02T10:19:06.740Z,72.63
2022-12-02T10:21:36.235Z,72.71
2022-12-02T10:24:12.320Z,72.63
2022-12-02T10:26:48.529Z,72.63
2022-12-02T10:29:29.301Z,72.77
2022-12-02T10:32:07.396Z,72.79
2022-12-02T10:34:37.346Z,72.61
2022-12-02T10:37:33.796Z,72.86
2022-12-02T10:40:18.276Z,72.47
2022-12-02T10:42:47.255Z,72.66
2022-12-02T10:45:25.719Z,72.62
2022-12-02T10:48:17.327Z,72.55
2022-12-02T10:50:46.601Z,72.14
2022-12-02T10:53:19.052Z,72.54
2022-12-02T10:55:48.249Z,72.50
2022-12-02T10:58:28.347Z,72.46
2022-12-02T11:01:02.945Z,72.69
2022-12-02T11:03:32.135Z,72.53
2022-12-02T11:06:03.475Z,72.63
2022-12-02T11:08:32.748Z,72.71
2022-12-02T11:11:38.823Z,72.58
2022-12-02T11:14:13.412Z,72.74
2022-12-02T11:16:53.040Z,72.33
2022-12-02T11:19:41.962Z,72.32
2022-12-02T11:22:49.601Z,72.53
2022-12-02T11:25:48.669Z,72.46
2022-12-02T11:28:29.221Z,72.38
2022-12-02T11:31:21.359Z,72.42
2022-12-02T11:33:53.643Z,72.18
2022-12-02T11:36:25.523Z,72.53
2022-12-02T11:38:54.335Z,72.48
2022-12-02T11:41:24.400Z,72.11
2022-12-02T11:44:00.425Z,72.25
2022-12-02T11:46:44.270Z,72.25
2022-12-02T11:49:32.718Z,72.37
2022-12-02T11:52:14.759Z,72.34
2022-12-02T11:54:51.666Z,72.28
2022-12-02T11:57:27.852Z,72.43
2022-12-02T11:59:57.112Z,72.53
2022-12-02T12:02:27.142Z,72.41
2022-12-02T12:05:07.888Z,72.56
2022-12-02T12:07:49.133Z,72.68
2022-12-02T12:10:34.655Z,72.54
2022-12-02T12:13:20.862Z,72.52
2022-12-02T12:16:03.031Z,72.47
2022-12-02T12:18:49.303Z,72.61
2022-12-02T12:22:07.836Z,72.51
2022-12-02T12:24:36.753Z,72.48
2022-12-02T12:27:05.512Z,72.61
2022-12-02T12:29:36.836Z,72.68
2022-12-02T12:32:06.859Z,72.66
2022-12-02T12:34:35.864Z,72.90
2022-12-02T12:37:04.954Z,72.81
2022-12-02T12:39:33.732Z,72.74
2022-12-02T12:42:02.855Z,72.73
2022-12-02T12:44:32.969Z,72.82
2022-12-02T12:47:04.809Z,72.61
2022-12-02T12:49:35.294Z,72.80
2022-12-02T12:52:04.973Z,72.82
2022-12-02T12:54:34.186Z,72.51
2022-12-02T12:57:03.427Z,72.56
2022-12-02T12:59:32.444Z,72.51
2022-12-02T13:02:02.348Z,72.64
2022-12-02T13:04:31.904Z,72.73
2022-12-02T13:07:00.763Z,72.69
2022-12-02T13:09:29.648Z,72.29
2022-12-02T13:11:58.440Z,72.71
2022-12-02T13:14:27.368Z,72.62
2022-12-02T13:16:56.290Z,72.64
2022-12-02T13:19:25.292Z,72.78
2022-12-02T13:21:54.242Z,72.72
2022-12-02T13:24:23.281Z,72.85
2022-12-02T13:26:52.131Z,72.91
2022-12-02T13:29:20.989Z,72.81
2022-12-02T13:31:49.784Z,72.93
2022-12-02T13:34:18.754Z,72.83
2022-12-02T13:36:47.590Z,72.82
2022-12-02T13:39:16.671Z,72.97
2022-12-02T13:41:46.696Z,72.88
2022-12-02T13:44:15.719Z,72.93
2022-12-02T13:46:44.724Z,72.95
2022-12-02T13:49:13.710Z,72.87
2022-12-02T13:51:42.657Z,72.98
2022-12-02T13:54:11.561Z,72.98
2022-12-02T13:56:40.532Z,73.10
2022-12-02T13:59:09.381Z,73.24
2022-12-02T14:01:38.950Z,73.07
2022-12-02T14:04:08.335Z,73.11
2022-12-02T14:06:38.133Z,73.06
2022-12-02T14:09:07.203Z,73.20
2022-12-02T14:11:36.133Z,73.21
2022-12-02T14:14:05.116Z,73.08
2022-12-02T14:16:34.290Z,73.18
2022-12-02T14:19:03.410Z,73.23
2022-12-02T14:21:32.354Z,73.22
2022-12-02T14:24:01.662Z,73.19
2022-12-02T14:26:31.819Z,72.93
2022-12-02T14:29:00.843Z,72.99
2022-12-02T14:31:30.038Z,73.08
2022-12-02T14:34:14.511Z,73.25
2022-12-02T14:36:46.317Z,73.14
2022-12-02T14:39:16.737Z,73.15
2022-12-02T14:41:46.696Z,72.96
2022-12-02T14:44:15.702Z,73.14
2022-12-02T14:46:47.689Z,73.15
2022-12-02T14:49:47.585Z,73.01
2022-12-02T14:52:05.717Z,73.31
2022-12-02T14:54:34.677Z,73.09
2022-12-02T14:57:04.290Z,73.22
2022-12-02T14:59:33.287Z,72.94
2022-12-02T15:02:03.005Z,73.19
2022-12-02T15:04:32.891Z,73.35
2022-12-02T15:07:01.955Z,73.30
2022-12-02T15:09:32.223Z,73.48
2022-12-02T15:12:01.239Z,73.20
2022-12-02T15:14:30.117Z,73.35
2022-12-02T15:16:59.061Z,73.42
2022-12-02T15:19:27.959Z,73.67
2022-12-02T15:21:56.857Z,73.55
2022-12-02T15:24:25.791Z,73.54
2022-12-02T15:26:55.866Z,73.36
2022-12-02T15:29:24.990Z,73.54
2022-12-02T15:31:54.019Z,73.32
2022-12-02T15:34:22.926Z,73.42
2022-12-02T15:36:52.063Z,73.34
2022-12-02T15:39:21.132Z,73.13
2022-12-02T15:41:50.089Z,73.13
2022-12-02T15:44:19.050Z,73.20
2022-12-02T15:46:48.096Z,73.23
2022-12-02T15:49:17.015Z,73.32
2022-12-02T15:51:46.128Z,73.27
2022-12-02T15:54:17.195Z,73.08
2022-12-02T15:56:49.019Z,73.17
2022-12-02T15:59:20.531Z,73.15
2022-12-02T16:01:50.445Z,73.16
2022-12-02T16:04:19.687Z,73.20
2022-12-02T16:06:48.603Z,73.13
2022-12-02T16:09:19.878Z,73.35
2022-12-02T16:11:49.790Z,73.37
2022-12-02T16:14:18.621Z,73.43
2022-12-02T16:16:47.547Z,73.24
2022-12-02T16:19:16.397Z,73.39
2022-12-02T16:21:45.270Z,73.25
2022-12-02T16:24:14.175Z,73.38
2022-12-02T16:26:42.950Z,73.42
2022-12-02T16:29:11.743Z,73.35
2022-12-02T16:31:40.921Z,73.36
2022-12-02T16:34:09.794Z,73.29
2022-12-02T16:36:38.644Z,73.16
2022-12-02T16:39:09.955Z,73.46
2022-12-02T16:41:38.841Z,73.33
2022-12-02T16:44:07.690Z,73.39
2022-12-02T16:46:38.033Z,73.19
2022-12-02T16:49:10.399Z,73.36
2022-12-02T16:51:39.292Z,73.46
2022-12-02T16:54:08.224Z,73.44
2022-12-02T16:56:37.042Z,73.42
2022-12-02T16:59:05.970Z,73.46
2022-12-02T17:01:35.938Z,73.17
2022-12-02T17:04:05.574Z,73.43
2022-12-02T17:06:34.400Z,73.20
2022-12-02T17:09:03.394Z,73.48
2022-12-02T17:11:32.329Z,73.15
2022-12-02T17:14:01.181Z,73.54
2022-12-02T17:16:30.059Z,73.39
2022-12-02T17:18:59.063Z,73.46
2022-12-02T17:21:27.951Z,73.55
2022-12-02T17:23:56.793Z,73.38
2022-12-02T17:26:25.604Z,73.37
2022-12-02T17:28:54.457Z,73.50
2022-12-02T17:31:23.336Z,73.49
2022-12-02T17:33:52.321Z,73.61
2022-12-02T17:36:21.125Z,73.41
2022-12-02T17:38:56.726Z,73.67
2022-12-02T17:41:27.276Z,73.26
2022-12-02T17:43:56.149Z,73.31
2022-12-02T17:46:25.304Z,73.45
2022-12-02T17:48:54.366Z,73.42
2022-12-02T17:51:23.281Z,73.41
2022-12-02T17:53:52.398Z,73.46
2022-12-02T17:56:21.297Z,73.62
2022-12-02T17:58:50.334Z,73.43
2022-12-02T18:01:20.090Z,73.51
2022-12-02T18:03:49.239Z,73.52
2022-12-02T18:06:18.001Z,73.59
2022-12-02T18:08:46.882Z,73.66
2022-12-02T18:11:15.747Z,73.63
2022-12-02T18:13:45.007Z,73.73
2022-12-02T18:16:13.922Z,73.67
2022-12-02T18:18:42.978Z,73.67
2022-12-02T18:21:11.963Z,73.76
2022-12-02T18:23:40.741Z,73.66
2022-12-02T18:26:09.774Z,73.71
2022-12-02T18:28:38.742Z,73.37
2022-12-02T18:31:07.644Z,73.60
2022-12-02T18:33:36.524Z,73.56
2022-12-02T18:36:05.677Z,73.57
2022-12-02T18:38:34.527Z,73.58
2022-12-02T18:41:03.299Z,73.87
2022-12-02T18:43:36.213Z,73.80
2022-12-02T18:46:05.690Z,73.93
2022-12-02T18:48:34.784Z,73.82
2022-12-02T18:51:03.907Z,73.45
2022-12-02T18:53:32.732Z,73.59
2022-12-02T18:56:01.532Z,73.69
2022-12-02T18:58:30.531Z,73.82
2022-12-02T19:01:00.153Z,73.86
2022-12-02T19:03:29.314Z,73.79
2022-12-02T19:05:58.100Z,73.93
2022-12-02T19:08:26.919Z,73.90
2022-12-02T19:10:55.841Z,73.83
2022-12-02T19:13:24.598Z,73.85
2022-12-02T19:15:53.494Z,73.90
2022-12-02T19:18:22.328Z,73.97
2022-12-02T19:20:51.274Z,73.90
2022-12-02T19:23:20.235Z,73.76
2022-12-02T19:25:50.511Z,74.00
2022-12-02T19:28:19.598Z,73.88
2022-12-02T19:30:48.432Z,74.02
2022-12-02T19:33:17.857Z,74.17
2022-12-02T19:35:46.685Z,74.10
2022-12-02T19:38:16.499Z,74.26
2022-12-02T19:40:46.033Z,73.88
2022-12-02T19:43:16.279Z,74.07
2022-12-02T19:45:45.480Z,74.20
2022-12-02T19:48:14.356Z,73.93
2022-12-02T19:50:43.200Z,73.92
2022-12-02T19:53:12.075Z,74.16
2022-12-02T19:55:40.922Z,74.18
2022-12-02T19:58:09.958Z,74.36
2022-12-02T20:00:39.586Z,74.32
2022-12-02T20:03:08.834Z,74.24
2022-12-02T20:05:37.631Z,73.94
2022-12-02T20:08:06.656Z,74.15
2022-12-02T20:10:35.631Z,73.98
2022-12-02T20:13:04.437Z,74.01
2022-12-02T20:15:34.350Z,74.14
2022-12-02T20:18:05.326Z,74.10
2022-12-02T20:20:34.298Z,74.00
2022-12-02T20:23:03.621Z,74.14
2022-12-02T20:25:32.865Z,73.97
2022-12-02T20:28:01.868Z,74.07
2022-12-02T20:30:30.804Z,73.98
2022-12-02T20:32:59.690Z,74.16
2022-12-02T20:35:28.692Z,74.17
2022-12-02T20:37:58.497Z,74.20
2022-12-02T20:40:27.551Z,74.15
2022-12-02T20:42:56.439Z,74.12
2022-12-02T20:45:25.308Z,74.22
2022-12-02T20:47:54.182Z,74.11
2022-12-02T20:50:23.045Z,74.10
2022-12-02T20:52:54.197Z,74.50
2022-12-02T20:55:23.236Z,74.33
2022-12-02T20:57:52.150Z,74.14
2022-12-02T21:00:22.044Z,74.12
2022-12-02T21:02:51.095Z,74.30
2022-12-02T21:05:20.016Z,74.42
2022-12-02T21:07:48.899Z,74.29
2022-12-02T21:10:17.887Z,74.30
2022-12-02T21:12:46.709Z,74.36
2022-12-02T21:15:17.713Z,74.26
2022-12-02T21:17:46.626Z,74.34
2022-12-02T21:20:19.257Z,74.13
2022-12-02T21:22:48.119Z,74.37
2022-12-02T21:25:17.217Z,74.46
2022-12-02T21:27:46.340Z,74.36
2022-12-02T21:30:15.625Z,74.54
2022-12-02T21:32:44.486Z,74.13
2022-12-02T21:35:13.389Z,74.16
2022-12-02T21:37:42.390Z,74.45
2022-12-02T21:40:14.274Z,74.32
2022-12-02T21:42:43.506Z,74.34
2022-12-02T21:45:12.971Z,74.21
2022-12-02T21:47:41.897Z,74.27
2022-12-02T21:50:12.651Z,74.33
2022-12-02T21:52:41.589Z,74.35
2022-12-02T21:55:10.802Z,74.47
2022-12-02T21:57:39.737Z,74.26
2022-12-02T22:00:10.390Z,74.15
2022-12-02T22:02:42.083Z,74.11
2022-12-02T22:05:11.299Z,74.32
2022-12-02T22:07:44.004Z,74.42
2022-12-02T22:10:24.533Z,74.33
2022-12-02T22:12:53.992Z,74.01
2022-12-02T22:15:23.770Z,74.26
2022-12-02T22:17:52.718Z,74.32
2022-12-02T22:20:21.797Z,74.11
2022-12-02T22:22:50.608Z,74.34
2022-12-02T22:25:19.590Z,74.37
2022-12-02T22:27:48.465Z,74.24
2022-12-02T22:30:17.702Z,74.17
2022-12-02T22:32:46.546Z,74.20
2022-12-02T22:35:15.423Z,74.18
2022-12-02T22:37:44.299Z,74.43
2022-12-02T22:40:13.686Z,74.42
2022-12-02T22:42:42.556Z,74.17
2022-12-02T22:45:11.779Z,74.24
2022-12-02T22:47:40.826Z,74.18
2022-12-02T22:50:10.010Z,74.32
2022-12-02T22:52:39.298Z,74.25
2022-12-02T22:55:08.460Z,74.31
2022-12-02T22:57:37.362Z,74.18
2022-12-02T23:00:09.226Z,74.06
2022-12-02T23:02:38.344Z,74.30
2022-12-02T23:05:08.015Z,74.03
2022-12-02T23:07:37.041Z,74.10
2022-12-02T23:10:06.648Z,74.26
2022-12-02T23:12:35.442Z,74.42
2022-12-02T23:15:34.437Z,74.46
2022-12-02T23:17:53.651Z,74.23
2022-12-02T23:20:22.493Z,74.03
2022-12-02T23:22:51.378Z,74.19
2022-12-02T23:25:20.245Z,73.89
2022-12-02T23:27:49.209Z,73.96
2022-12-02T23:30:18.215Z,74.19
2022-12-02T23:32:47.473Z,74.19
2022-12-02T23:35:16.326Z,74.12
2022-12-02T23:37:45.959Z,74.20
2022-12-02T23:40:15.081Z,74.21
2022-12-02T23:42:44.209Z,74.02
2022-12-02T23:45:13.393Z,74.05
2022-12-02T23:47:42.297Z,74.18
2022-12-02T23:50:11.815Z,74.19
2022-12-02T23:52:40.718Z,74.21
2022-12-02T23:55:11.255Z,74.18
2022-12-02T23:57:44.204Z,74.17
